createdAt,value
2023-07-19T04:01:52.975Z,55.30
2023-07-19T04:04:24.735Z,51.80
2023-07-19T04:06:56.515Z,49.80
2023-07-19T04:09:28.230Z,50.20
2023-07-19T04:11:59.984Z,48.60
2023-07-19T04:14:31.732Z,45.90
2023-07-19T04:17:05.562Z,45.50
2023-07-19T04:19:37.299Z,44.90
2023-07-19T04:22:09.045Z,43.80
2023-07-19T04:24:40.750Z,50.30
2023-07-19T04:27:12.426Z,47.00
2023-07-19T04:29:45.666Z,45.10
2023-07-19T04:32:18.731Z,45.10
2023-07-19T04:34:50.460Z,41.40
2023-07-19T04:37:22.195Z,28.80
2023-07-19T04:39:53.977Z,27.60
2023-07-19T04:42:25.838Z,24.90
2023-07-19T04:44:57.559Z,17.80
2023-07-19T04:47:30.618Z,16.80
2023-07-19T04:50:02.403Z,9.30
2023-07-19T04:52:34.147Z,12.60
2023-07-19T04:55:06.636Z,10.60
2023-07-19T04:57:38.397Z,4.40
2023-07-19T05:00:10.718Z,8.40
2023-07-19T05:02:43.857Z,1.50
2023-07-19T05:05:15.679Z,1.00
2023-07-19T05:07:49.279Z,1.00
2023-07-19T05:10:22.715Z,1.00
2023-07-19T05:12:54.449Z,1.00
2023-07-19T05:15:26.194Z,1.00
2023-07-19T05:17:59.262Z,1.00
2023-07-19T05:20:33.196Z,1.00
2023-07-19T05:23:05.213Z,1.00
2023-07-19T05:25:36.993Z,1.00
2023-07-19T05:28:08.715Z,1.00
2023-07-19T05:30:40.449Z,1.00
2023-07-19T05:33:13.473Z,1.00
2023-07-19T05:35:48.119Z,1.00
2023-07-19T05:38:19.812Z,1.00
2023-07-19T05:40:51.506Z,1.00
2023-07-19T05:43:23.214Z,1.00
2023-07-19T05:45:54.959Z,1.00
2023-07-19T05:48:28.037Z,1.00
2023-07-19T05:50:59.758Z,1.00
2023-07-19T05:53:31.469Z,1.00
2023-07-19T05:56:03.193Z,1.00
2023-07-19T05:58:34.900Z,1.00
2023-07-19T06:01:06.655Z,1.00
2023-07-19T06:03:39.890Z,1.00
2023-07-19T06:06:11.638Z,1.00
2023-07-19T06:08:43.348Z,1.00
2023-07-19T06:11:15.072Z,1.00
2023-07-19T06:13:46.866Z,1.00
2023-07-19T06:19:06.282Z,1.00
2023-07-19T06:21:37.987Z,1.00
2023-07-19T06:24:09.769Z,1.00
2023-07-19T06:26:41.539Z,1.00
2023-07-19T06:29:13.238Z,1.00
2023-07-19T06:31:45.042Z,1.00
2023-07-19T06:34:18.104Z,1.00
2023-07-19T06:36:49.900Z,1.00
2023-07-19T06:39:21.600Z,1.00
2023-07-19T06:41:53.299Z,1.00
2023-07-19T06:44:25.103Z,1.00
2023-07-19T06:46:56.875Z,1.00
2023-07-19T06:49:29.957Z,1.00
2023-07-19T06:52:01.652Z,1.00
2023-07-19T06:54:33.364Z,1.00
2023-07-19T06:57:06.034Z,1.00
2023-07-19T06:59:37.764Z,1.00
2023-07-19T07:02:09.498Z,1.00
2023-07-19T07:04:42.553Z,1.00
2023-07-19T07:07:14.275Z,1.00
2023-07-19T07:09:46.051Z,1.00
2023-07-19T07:12:17.761Z,1.00
2023-07-19T07:14:50.952Z,1.00
2023-07-19T07:17:23.034Z,1.00
2023-07-19T07:19:58.845Z,1.00
2023-07-19T07:22:31.781Z,1.00
2023-07-19T07:25:04.037Z,1.00
2023-07-19T07:27:35.762Z,1.00
2023-07-19T07:30:08.440Z,1.00
2023-07-19T07:32:40.173Z,1.00
2023-07-19T07:35:13.292Z,1.00
2023-07-19T07:37:45.077Z,1.00
2023-07-19T07:40:16.929Z,1.00
2023-07-19T07:42:48.671Z,1.00
2023-07-19T07:45:20.388Z,1.00
2023-07-19T07:47:52.105Z,1.00
2023-07-19T07:50:25.316Z,1.00
2023-07-19T07:53:10.761Z,1.00
2023-07-19T07:58:16.689Z,1.00
2023-07-19T08:00:48.467Z,1.00
2023-07-19T08:03:20.279Z,1.00
2023-07-19T08:05:53.524Z,1.00
2023-07-19T08:08:25.237Z,1.00
2023-07-19T08:10:56.989Z,1.00
2023-07-19T08:13:28.713Z,1.00
2023-07-19T08:16:00.434Z,1.00
2023-07-19T08:18:32.162Z,1.00
2023-07-19T08:21:07.216Z,1.00
2023-07-19T08:26:11.076Z,1.00
2023-07-19T08:28:42.803Z,1.00
2023-07-19T08:31:14.541Z,1.00
2023-07-19T08:33:46.289Z,1.00
2023-07-19T08:36:19.381Z,1.00
2023-07-19T08:38:51.133Z,1.00
2023-07-19T08:41:23.740Z,1.00
2023-07-19T08:43:55.930Z,1.00
2023-07-19T08:46:27.686Z,1.00
2023-07-19T08:48:59.931Z,1.00
2023-07-19T08:51:33.064Z,1.00
2023-07-19T08:54:04.761Z,1.00
2023-07-19T08:56:36.509Z,1.00
2023-07-19T08:59:08.242Z,1.00
2023-07-19T09:01:40.040Z,1.00
2023-07-19T09:04:11.793Z,1.00
2023-07-19T09:06:47.316Z,1.00
2023-07-19T09:09:20.500Z,1.00
2023-07-19T09:11:52.218Z,1.00
2023-07-19T09:14:35.778Z,1.00
2023-07-19T09:17:07.610Z,1.00
2023-07-19T09:19:42.529Z,1.00
2023-07-19T09:22:17.078Z,1.00
2023-07-19T09:24:55.092Z,1.00
2023-07-19T09:27:26.884Z,1.00
2023-07-19T09:29:58.849Z,1.00
2023-07-19T09:32:30.798Z,1.00
2023-07-19T09:35:04.377Z,1.00
2023-07-19T09:37:37.450Z,1.00
2023-07-19T09:40:09.959Z,1.00
2023-07-19T09:42:41.654Z,1.00
2023-07-19T09:45:13.343Z,1.00
2023-07-19T09:47:45.567Z,1.00
2023-07-19T09:50:17.609Z,1.00
2023-07-19T09:52:50.698Z,1.00
2023-07-19T09:55:22.594Z,1.00
2023-07-19T09:57:54.280Z,1.00
2023-07-19T10:00:26.084Z,1.00
2023-07-19T10:02:59.469Z,1.00
2023-07-19T10:05:31.241Z,1.00
2023-07-19T10:08:05.047Z,1.00
2023-07-19T10:10:36.911Z,1.00
2023-07-19T10:13:08.790Z,1.00
2023-07-19T10:15:40.719Z,1.00
2023-07-19T10:18:12.683Z,1.00
2023-07-19T10:20:44.454Z,1.00
2023-07-19T10:28:28.978Z,1.00
2023-07-19T10:31:17.082Z,1.00
2023-07-19T10:33:54.473Z,1.00
2023-07-19T10:36:26.690Z,1.00
2023-07-19T10:38:59.959Z,1.00
2023-07-19T10:41:31.667Z,1.00
2023-07-19T10:44:06.051Z,1.00
2023-07-19T10:46:38.382Z,1.00
2023-07-19T10:49:10.095Z,1.00
2023-07-19T10:51:52.125Z,1.00
2023-07-19T10:54:26.968Z,1.00
2023-07-19T10:56:58.850Z,1.00
2023-07-19T10:59:30.529Z,1.00
2023-07-19T11:02:02.257Z,1.00
2023-07-19T11:04:36.355Z,1.00
2023-07-19T11:07:08.057Z,1.00
2023-07-19T11:09:42.361Z,1.00
2023-07-19T11:12:14.038Z,1.00
2023-07-19T11:14:54.279Z,1.00
2023-07-19T11:17:26.572Z,1.00
2023-07-19T11:19:58.962Z,1.00
2023-07-19T11:22:30.704Z,1.00
2023-07-19T11:27:37.473Z,1.00
2023-07-19T11:30:09.357Z,1.00
2023-07-19T11:32:41.198Z,1.00
2023-07-19T11:35:12.989Z,1.00
2023-07-19T11:37:44.686Z,1.00
2023-07-19T11:40:17.703Z,1.00
2023-07-19T11:42:51.616Z,1.00
2023-07-19T11:45:24.450Z,1.00
2023-07-19T11:47:57.973Z,1.00
2023-07-19T11:50:29.827Z,1.00
2023-07-19T11:53:01.911Z,1.00
2023-07-19T11:55:35.109Z,1.00
2023-07-19T11:58:06.836Z,1.00
2023-07-19T12:00:38.741Z,1.00
2023-07-19T12:03:10.605Z,1.00
2023-07-19T12:05:42.408Z,1.00
2023-07-19T12:08:14.129Z,1.00
2023-07-19T12:10:47.188Z,1.00
2023-07-19T12:13:18.900Z,1.00
2023-07-19T12:15:50.607Z,1.00
2023-07-19T12:18:22.314Z,1.00
2023-07-19T12:20:54.100Z,1.00
2023-07-19T12:26:01.816Z,1.00
2023-07-19T12:28:33.528Z,1.00
2023-07-19T12:31:05.245Z,1.00
2023-07-19T12:33:36.974Z,1.00
2023-07-19T12:36:08.656Z,1.00
2023-07-19T12:38:40.501Z,1.00
2023-07-19T12:41:13.558Z,1.00
2023-07-19T12:43:45.294Z,1.00
2023-07-19T12:46:17.023Z,1.00
2023-07-19T12:51:21.392Z,1.00
2023-07-19T12:53:53.130Z,1.00
2023-07-19T12:56:26.614Z,1.00
2023-07-19T12:58:58.332Z,1.00
2023-07-19T13:01:30.272Z,1.00
2023-07-19T13:04:02.063Z,1.00
2023-07-19T13:06:34.121Z,1.00
2023-07-19T13:09:06.152Z,1.00
2023-07-19T13:11:39.289Z,1.00
2023-07-19T13:14:11.139Z,1.00
2023-07-19T13:16:42.870Z,1.00
2023-07-19T13:19:14.614Z,1.00
2023-07-19T13:21:46.504Z,1.00
2023-07-19T13:24:18.202Z,1.00
2023-07-19T13:26:51.224Z,1.00
2023-07-19T13:29:22.979Z,1.00
2023-07-19T13:31:54.699Z,1.00
2023-07-19T13:34:28.560Z,1.00
2023-07-19T13:39:38.607Z,1.00
2023-07-19T13:42:11.661Z,1.00
2023-07-19T13:44:43.370Z,1.00
2023-07-19T13:49:46.991Z,1.00
2023-07-19T13:52:18.707Z,1.00
2023-07-19T13:54:50.417Z,1.00
2023-07-19T13:57:24.567Z,1.00
2023-07-19T13:59:56.296Z,1.00
2023-07-19T14:02:28.213Z,1.00
2023-07-19T14:05:00.939Z,1.00
2023-07-19T14:07:32.842Z,1.00
2023-07-19T14:10:04.936Z,1.00
2023-07-19T14:12:37.985Z,1.00
2023-07-19T14:15:09.854Z,1.00
2023-07-19T14:17:41.675Z,1.00
2023-07-19T14:20:13.421Z,1.00
2023-07-19T14:22:45.137Z,1.00
2023-07-19T14:25:16.861Z,1.00
2023-07-19T14:27:49.893Z,1.00
2023-07-19T14:30:21.727Z,1.00
2023-07-19T14:32:53.409Z,1.00
2023-07-19T14:35:25.170Z,1.00
2023-07-19T14:37:56.880Z,1.00
2023-07-19T14:40:28.612Z,1.00
2023-07-19T14:43:01.717Z,1.00
2023-07-19T14:45:33.509Z,1.00
2023-07-19T14:48:05.877Z,1.00
2023-07-19T14:50:37.641Z,1.00
2023-07-19T14:53:09.418Z,1.00
2023-07-19T14:55:41.165Z,1.00
2023-07-19T14:58:14.238Z,1.00
2023-07-19T15:05:56.580Z,1.00
2023-07-19T15:08:28.287Z,1.00
2023-07-19T15:11:00.047Z,1.00
2023-07-19T15:13:33.150Z,1.00
2023-07-19T15:16:06.749Z,1.00
2023-07-19T15:18:39.532Z,1.00
2023-07-19T15:21:11.463Z,1.00
2023-07-19T15:23:49.826Z,1.00
2023-07-19T15:26:32.813Z,1.00
2023-07-19T15:29:06.734Z,1.00
2023-07-19T15:31:38.807Z,1.00
2023-07-19T15:34:10.618Z,1.00
2023-07-19T15:36:42.330Z,1.00
2023-07-19T15:39:14.054Z,1.00
2023-07-19T15:41:45.768Z,1.00
2023-07-19T15:44:34.537Z,1.00
2023-07-19T15:47:08.081Z,1.00
2023-07-19T15:49:39.892Z,1.00
2023-07-19T15:52:11.666Z,1.00
2023-07-19T15:54:43.413Z,1.00
2023-07-19T15:57:15.114Z,1.00
2023-07-19T15:59:48.195Z,1.00
2023-07-19T16:02:20.050Z,1.00
2023-07-19T16:04:51.874Z,1.00
2023-07-19T16:07:23.721Z,1.00
2023-07-19T16:09:55.429Z,1.00
2023-07-19T16:12:27.144Z,1.00
2023-07-19T16:15:00.189Z,1.00
2023-07-19T16:17:31.947Z,1.00
2023-07-19T16:20:04.055Z,1.00
2023-07-19T16:22:35.980Z,1.00
2023-07-19T16:25:08.688Z,1.00
2023-07-19T16:27:40.432Z,1.00
2023-07-19T16:30:13.985Z,1.00
2023-07-19T16:32:45.704Z,1.00
2023-07-19T16:35:17.582Z,1.00
2023-07-19T16:37:49.349Z,1.00
2023-07-19T16:40:21.065Z,1.00
2023-07-19T16:42:52.759Z,1.00
2023-07-19T16:45:25.856Z,1.00
2023-07-19T16:47:57.576Z,1.00
2023-07-19T16:50:29.326Z,1.00
2023-07-19T16:53:01.865Z,1.00
2023-07-19T16:55:33.577Z,1.00
2023-07-19T16:58:05.290Z,1.00
2023-07-19T17:00:38.451Z,1.00
2023-07-19T17:03:10.214Z,1.00
2023-07-19T17:05:42.121Z,1.00
2023-07-19T17:08:13.810Z,1.00
2023-07-19T17:10:45.509Z,1.00
2023-07-19T17:13:17.233Z,1.00
2023-07-19T17:15:50.292Z,1.00
2023-07-19T17:18:23.652Z,1.00
2023-07-19T17:20:55.475Z,1.00
2023-07-19T17:23:27.271Z,1.00
2023-07-19T17:25:58.967Z,1.00
2023-07-19T17:28:30.665Z,1.00
2023-07-19T17:31:03.732Z,1.00
2023-07-19T17:33:35.516Z,1.00
2023-07-19T17:36:07.349Z,1.00
2023-07-19T17:38:39.071Z,1.00
2023-07-19T17:41:10.806Z,1.00
2023-07-19T17:43:42.630Z,1.00
2023-07-19T17:46:16.845Z,1.00
2023-07-19T17:48:49.624Z,1.00
2023-07-19T17:51:21.471Z,1.00
2023-07-19T17:53:53.332Z,1.00
2023-07-19T17:56:25.044Z,1.00
2023-07-19T17:58:56.734Z,1.00
2023-07-19T18:01:30.049Z,1.00
2023-07-19T18:04:01.945Z,1.00
2023-07-19T18:06:33.712Z,1.00
2023-07-19T18:09:05.425Z,1.00
2023-07-19T18:11:37.143Z,1.00
2023-07-19T18:14:08.950Z,1.00
2023-07-19T18:16:42.075Z,1.00
2023-07-19T18:19:13.810Z,1.00
2023-07-19T18:22:01.224Z,1.00
2023-07-19T18:24:35.160Z,1.00
2023-07-19T18:27:07.199Z,1.00
2023-07-19T18:29:38.928Z,1.00
2023-07-19T18:32:12.006Z,1.00
2023-07-19T18:34:43.741Z,1.00
2023-07-19T18:37:15.472Z,1.00
2023-07-19T18:39:47.168Z,1.00
2023-07-19T18:42:18.915Z,1.00
2023-07-19T18:44:50.596Z,1.00
2023-07-19T18:47:24.222Z,1.00
2023-07-19T18:49:55.917Z,1.00
2023-07-19T18:52:27.730Z,1.00
2023-07-19T18:54:59.456Z,1.00
2023-07-19T18:57:31.178Z,1.00
2023-07-19T19:00:03.113Z,1.00
2023-07-19T19:02:36.345Z,1.00
2023-07-19T19:05:08.694Z,1.00
2023-07-19T19:07:40.440Z,1.00
2023-07-19T19:10:12.225Z,1.00
2023-07-19T19:12:43.984Z,1.00
2023-07-19T19:15:15.980Z,1.00
2023-07-19T19:17:49.050Z,1.00
2023-07-19T19:20:20.833Z,1.00
2023-07-19T19:22:52.569Z,1.00
2023-07-19T19:25:24.323Z,1.00
2023-07-19T19:27:56.102Z,1.00
2023-07-19T19:30:27.921Z,1.00
2023-07-19T19:35:33.305Z,1.00
2023-07-19T19:38:05.040Z,1.00
2023-07-19T19:40:36.735Z,1.00
2023-07-19T19:43:08.478Z,1.00
2023-07-19T19:45:40.176Z,1.00
2023-07-19T19:48:13.987Z,1.00
2023-07-19T19:50:46.487Z,1.00
2023-07-19T19:53:21.048Z,1.00
2023-07-19T19:55:53.543Z,1.00
2023-07-19T19:58:25.511Z,1.00
2023-07-19T20:00:57.301Z,1.00
2023-07-19T20:06:05.501Z,1.00
2023-07-19T20:08:37.197Z,1.00
2023-07-19T20:11:08.922Z,1.00
2023-07-19T20:13:40.612Z,1.00
2023-07-19T20:16:12.444Z,1.00
2023-07-19T20:18:47.840Z,1.00
2023-07-19T20:21:19.798Z,1.00
2023-07-19T20:23:51.616Z,1.00
2023-07-19T20:26:25.512Z,1.00
2023-07-19T20:29:26.249Z,1.00
2023-07-19T20:37:31.296Z,1.00
2023-07-19T20:42:27.432Z,1.00
2023-07-19T20:44:59.340Z,1.00
2023-07-19T20:47:31.221Z,1.00
2023-07-19T20:50:05.061Z,1.00
2023-07-19T20:52:36.766Z,1.00
2023-07-19T20:55:09.192Z,1.00
2023-07-19T20:57:40.895Z,1.00
2023-07-19T21:00:13.188Z,1.00
2023-07-19T21:02:45.011Z,1.10
2023-07-19T21:05:18.309Z,1.00
2023-07-19T21:07:50.062Z,2.40
2023-07-19T21:10:21.792Z,1.40
2023-07-19T21:12:53.626Z,4.40
2023-07-19T21:15:25.399Z,10.80
2023-07-19T21:20:30.608Z,12.80
2023-07-19T21:23:02.380Z,11.70
2023-07-19T21:25:34.121Z,10.70
2023-07-19T21:28:05.834Z,16.60
2023-07-19T21:30:37.523Z,17.40
2023-07-19T21:33:09.269Z,19.70
2023-07-19T21:38:14.402Z,23.90
2023-07-19T21:40:46.116Z,21.80
2023-07-19T21:43:17.856Z,21.30
2023-07-19T21:48:21.880Z,26.40
2023-07-19T21:50:55.032Z,26.50
2023-07-19T21:53:26.774Z,30.30
2023-07-19T21:55:58.534Z,31.50
2023-07-19T21:58:30.245Z,34.90
